Terminal Aerodrome Forecast
Issued by NWS

Home | Current Version | Previous Version | Text Only | Print | Product List | Glossary On
Versions: 1 2 3 4 5 6 7 8 9 10 11 12 13 14 15
621
FTUS44 KCRP 281121
TAFLRD
TAF
KLRD 281121Z 2812/2912 13009KT P6SM OVC020
     FM281500 16015G20KT P6SM BKN035 OVC150
     FM282300 14012G18KT P6SM VCTS SCT050CB OVC100
     FM290600 17007KT P6SM VCSH BKN025 OVC250=

USA.gov is the U.S. government's official web portal to all federal, state and local government web resources and services.